sensor_id;sensor_type;location;lat;lon;timestamp;P1;durP1;ratioP1;P2;durP2;ratioP2
39256;SDS011;67272;48.066;11.038;2024-01-27T00:00:41;3.00;;;1.60;;
39256;SDS011;67272;48.066;11.038;2024-01-27T00:03:08;2.60;;;1.67;;
39256;SDS011;67272;48.066;11.038;2024-01-27T00:05:34;3.90;;;1.50;;
39256;SDS011;67272;48.066;11.038;2024-01-27T00:08:00;2.33;;;1.40;;
39256;SDS011;67272;48.066;11.038;2024-01-27T00:10:27;2.43;;;1.70;;
39256;SDS011;67272;48.066;11.038;2024-01-27T00:12:56;2.07;;;1.40;;
39256;SDS011;67272;48.066;11.038;2024-01-27T00:15:23;2.30;;;1.43;;
39256;SDS011;67272;48.066;11.038;2024-01-27T00:17:49;2.70;;;1.43;;
39256;SDS011;67272;48.066;11.038;2024-01-27T00:20:16;2.67;;;1.40;;
39256;SDS011;67272;48.066;11.038;2024-01-27T00:22:48;2.27;;;1.17;;
39256;SDS011;67272;48.066;11.038;2024-01-27T00:25:14;2.13;;;1.40;;
39256;SDS011;67272;48.066;11.038;2024-01-27T00:27:41;1.63;;;1.20;;
39256;SDS011;67272;48.066;11.038;2024-01-27T00:30:07;2.77;;;1.40;;
39256;SDS011;67272;48.066;11.038;2024-01-27T00:32:37;2.07;;;1.40;;
39256;SDS011;67272;48.066;11.038;2024-01-27T00:35:03;2.10;;;1.20;;
39256;SDS011;67272;48.066;11.038;2024-01-27T00:37:42;2.50;;;1.30;;
39256;SDS011;67272;48.066;11.038;2024-01-27T00:40:12;1.73;;;1.30;;
39256;SDS011;67272;48.066;11.038;2024-01-27T00:42:40;4.50;;;1.50;;
39256;SDS011;67272;48.066;11.038;2024-01-27T00:45:09;1.93;;;1.33;;
39256;SDS011;67272;48.066;11.038;2024-01-27T00:47:36;2.80;;;1.60;;
39256;SDS011;67272;48.066;11.038;2024-01-27T00:50:02;1.50;;;1.37;;
39256;SDS011;67272;48.066;11.038;2024-01-27T00:52:29;2.70;;;1.33;;
39256;SDS011;67272;48.066;11.038;2024-01-27T00:55:01;2.53;;;1.53;;
39256;SDS011;67272;48.066;11.038;2024-01-27T00:57:28;5.07;;;1.70;;
39256;SDS011;67272;48.066;11.038;2024-01-27T00:59:58;3.10;;;2.00;;
39256;SDS011;67272;48.066;11.038;2024-01-27T01:02:24;2.27;;;1.57;;
39256;SDS011;67272;48.066;11.038;2024-01-27T01:04:50;2.93;;;2.00;;
39256;SDS011;67272;48.066;11.038;2024-01-27T01:07:17;3.67;;;1.90;;
39256;SDS011;67272;48.066;11.038;2024-01-27T01:09:43;3.47;;;1.87;;
39256;SDS011;67272;48.066;11.038;2024-01-27T01:12:14;2.97;;;1.70;;
39256;SDS011;67272;48.066;11.038;2024-01-27T01:14:44;4.00;;;2.03;;
39256;SDS011;67272;48.066;11.038;2024-01-27T01:17:13;2.53;;;1.93;;
39256;SDS011;67272;48.066;11.038;2024-01-27T01:19:42;3.03;;;1.70;;
39256;SDS011;67272;48.066;11.038;2024-01-27T01:22:18;2.50;;;1.80;;
39256;SDS011;67272;48.066;11.038;2024-01-27T01:24:47;1.93;;;1.80;;
39256;SDS011;67272;48.066;11.038;2024-01-27T01:27:13;2.87;;;1.50;;
39256;SDS011;67272;48.066;11.038;2024-01-27T01:29:50;3.47;;;1.90;;
39256;SDS011;67272;48.066;11.038;2024-01-27T01:32:16;4.57;;;2.00;;
39256;SDS011;67272;48.066;11.038;2024-01-27T01:34:52;3.00;;;2.13;;
39256;SDS011;67272;48.066;11.038;2024-01-27T01:37:27;3.00;;;2.10;;
39256;SDS011;67272;48.066;11.038;2024-01-27T01:39:59;2.77;;;1.67;;
39256;SDS011;67272;48.066;11.038;2024-01-27T01:42:25;2.90;;;2.13;;
39256;SDS011;67272;48.066;11.038;2024-01-27T01:44:55;2.87;;;1.70;;
39256;SDS011;67272;48.066;11.038;2024-01-27T01:47:21;2.50;;;1.57;;
39256;SDS011;67272;48.066;11.038;2024-01-27T01:49:51;2.37;;;1.83;;
39256;SDS011;67272;48.066;11.038;2024-01-27T01:52:20;2.13;;;1.70;;
39256;SDS011;67272;48.066;11.038;2024-01-27T01:54:47;1.73;;;1.60;;
39256;SDS011;67272;48.066;11.038;2024-01-27T01:57:14;2.53;;;1.90;;
39256;SDS011;67272;48.066;11.038;2024-01-27T01:59:43;4.90;;;2.10;;
39256;SDS011;67272;48.066;11.038;2024-01-27T02:02:10;2.73;;;1.87;;
39256;SDS011;67272;48.066;11.038;2024-01-27T02:04:42;3.53;;;2.17;;
39256;SDS011;67272;48.066;11.038;2024-01-27T02:07:09;3.70;;;1.90;;
39256;SDS011;67272;48.066;11.038;2024-01-27T02:09:35;3.50;;;1.87;;
39256;SDS011;67272;48.066;11.038;2024-01-27T02:12:02;5.53;;;2.10;;
39256;SDS011;67272;48.066;11.038;2024-01-27T02:14:28;2.87;;;2.33;;
39256;SDS011;67272;48.066;11.038;2024-01-27T02:16:56;3.43;;;1.93;;
39256;SDS011;67272;48.066;11.038;2024-01-27T02:19:22;3.73;;;2.00;;
39256;SDS011;67272;48.066;11.038;2024-01-27T02:21:49;9.23;;;7.20;;
39256;SDS011;67272;48.066;11.038;2024-01-27T02:24:15;3.33;;;2.40;;
39256;SDS011;67272;48.066;11.038;2024-01-27T02:26:41;5.13;;;2.07;;
39256;SDS011;67272;48.066;11.038;2024-01-27T02:29:10;3.47;;;2.37;;
39256;SDS011;67272;48.066;11.038;2024-01-27T02:31:37;3.57;;;2.37;;
39256;SDS011;67272;48.066;11.038;2024-01-27T02:34:12;4.47;;;2.50;;
39256;SDS011;67272;48.066;11.038;2024-01-27T02:36:38;5.40;;;2.60;;
39256;SDS011;67272;48.066;11.038;2024-01-27T02:39:05;3.93;;;2.30;;
39256;SDS011;67272;48.066;11.038;2024-01-27T02:41:37;3.97;;;2.33;;
39256;SDS011;67272;48.066;11.038;2024-01-27T02:44:07;4.13;;;3.23;;
39256;SDS011;67272;48.066;11.038;2024-01-27T02:46:36;3.67;;;2.80;;
39256;SDS011;67272;48.066;11.038;2024-01-27T02:49:07;3.60;;;2.50;;
39256;SDS011;67272;48.066;11.038;2024-01-27T02:51:34;2.83;;;2.20;;
39256;SDS011;67272;48.066;11.038;2024-01-27T02:54:00;4.03;;;2.17;;
39256;SDS011;67272;48.066;11.038;2024-01-27T02:56:35;2.63;;;1.90;;
39256;SDS011;67272;48.066;11.038;2024-01-27T02:59:02;4.97;;;2.50;;
39256;SDS011;67272;48.066;11.038;2024-01-27T03:01:31;3.53;;;2.10;;
39256;SDS011;67272;48.066;11.038;2024-01-27T03:03:57;2.50;;;2.20;;
39256;SDS011;67272;48.066;11.038;2024-01-27T03:06:24;3.27;;;1.90;;
39256;SDS011;67272;48.066;11.038;2024-01-27T03:08:53;3.50;;;1.77;;
39256;SDS011;67272;48.066;11.038;2024-01-27T03:11:20;4.77;;;2.10;;
39256;SDS011;67272;48.066;11.038;2024-01-27T03:13:50;3.60;;;2.23;;
39256;SDS011;67272;48.066;11.038;2024-01-27T03:16:19;4.20;;;2.17;;
39256;SDS011;67272;48.066;11.038;2024-01-27T03:18:48;2.47;;;2.07;;
39256;SDS011;67272;48.066;11.038;2024-01-27T03:21:17;5.00;;;2.30;;
39256;SDS011;67272;48.066;11.038;2024-01-27T03:23:46;5.30;;;2.20;;
39256;SDS011;67272;48.066;11.038;2024-01-27T03:26:19;3.77;;;2.00;;
39256;SDS011;67272;48.066;11.038;2024-01-27T03:28:45;2.70;;;2.17;;
39256;SDS011;67272;48.066;11.038;2024-01-27T03:31:30;2.53;;;2.23;;
39256;SDS011;67272;48.066;11.038;2024-01-27T03:34:00;3.87;;;2.17;;
39256;SDS011;67272;48.066;11.038;2024-01-27T03:36:27;4.30;;;2.00;;
39256;SDS011;67272;48.066;11.038;2024-01-27T03:38:59;4.87;;;2.53;;
39256;SDS011;67272;48.066;11.038;2024-01-27T03:41:26;3.60;;;2.67;;
39256;SDS011;67272;48.066;11.038;2024-01-27T03:43:58;3.83;;;2.43;;
39256;SDS011;67272;48.066;11.038;2024-01-27T03:46:28;2.93;;;2.43;;
39256;SDS011;67272;48.066;11.038;2024-01-27T03:48:54;4.60;;;2.80;;
39256;SDS011;67272;48.066;11.038;2024-01-27T03:51:28;2.90;;;2.20;;
39256;SDS011;67272;48.066;11.038;2024-01-27T03:53:54;4.00;;;2.43;;
39256;SDS011;67272;48.066;11.038;2024-01-27T03:56:20;5.57;;;2.60;;
39256;SDS011;67272;48.066;11.038;2024-01-27T03:58:47;5.23;;;2.50;;
39256;SDS011;67272;48.066;11.038;2024-01-27T04:01:16;3.60;;;2.57;;
39256;SDS011;67272;48.066;11.038;2024-01-27T04:03:42;4.27;;;2.50;;
39256;SDS011;67272;48.066;11.038;2024-01-27T04:06:09;6.07;;;2.50;;
39256;SDS011;67272;48.066;11.038;2024-01-27T04:08:35;2.77;;;2.53;;
39256;SDS011;67272;48.066;11.038;2024-01-27T04:11:21;3.97;;;2.50;;
39256;SDS011;67272;48.066;11.038;2024-01-27T04:13:48;4.97;;;3.07;;
39256;SDS011;67272;48.066;11.038;2024-01-27T04:16:18;3.20;;;2.70;;
39256;SDS011;67272;48.066;11.038;2024-01-27T04:18:47;4.23;;;2.80;;
39256;SDS011;67272;48.066;11.038;2024-01-27T04:21:16;3.07;;;2.77;;
39256;SDS011;67272;48.066;11.038;2024-01-27T04:23:52;4.47;;;2.80;;
39256;SDS011;67272;48.066;11.038;2024-01-27T04:26:18;3.87;;;2.60;;
39256;SDS011;67272;48.066;11.038;2024-01-27T04:28:54;4.97;;;2.70;;
39256;SDS011;67272;48.066;11.038;2024-01-27T04:31:29;5.50;;;2.80;;
39256;SDS011;67272;48.066;11.038;2024-01-27T04:33:59;5.73;;;3.10;;
39256;SDS011;67272;48.066;11.038;2024-01-27T04:36:28;2.80;;;2.60;;
39256;SDS011;67272;48.066;11.038;2024-01-27T04:38:55;5.63;;;3.20;;
39256;SDS011;67272;48.066;11.038;2024-01-27T04:41:24;5.50;;;2.90;;
39256;SDS011;67272;48.066;11.038;2024-01-27T04:43:50;4.30;;;2.70;;
39256;SDS011;67272;48.066;11.038;2024-01-27T04:46:20;5.93;;;2.87;;
39256;SDS011;67272;48.066;11.038;2024-01-27T04:48:49;4.30;;;2.97;;
39256;SDS011;67272;48.066;11.038;2024-01-27T04:51:16;4.97;;;3.13;;
39256;SDS011;67272;48.066;11.038;2024-01-27T04:53:42;4.37;;;3.40;;
39256;SDS011;67272;48.066;11.038;2024-01-27T04:56:11;3.40;;;2.73;;
39256;SDS011;67272;48.066;11.038;2024-01-27T04:58:38;4.57;;;2.67;;
39256;SDS011;67272;48.066;11.038;2024-01-27T05:01:04;4.97;;;2.93;;
39256;SDS011;67272;48.066;11.038;2024-01-27T05:03:34;3.37;;;2.53;;
39256;SDS011;67272;48.066;11.038;2024-01-27T05:06:00;4.50;;;2.80;;
39256;SDS011;67272;48.066;11.038;2024-01-27T05:08:30;5.43;;;3.10;;
39256;SDS011;67272;48.066;11.038;2024-01-27T05:10:59;7.37;;;3.07;;
39256;SDS011;67272;48.066;11.038;2024-01-27T05:13:28;4.30;;;2.63;;
39256;SDS011;67272;48.066;11.038;2024-01-27T05:15:54;5.90;;;2.80;;
39256;SDS011;67272;48.066;11.038;2024-01-27T05:18:21;4.40;;;2.77;;
39256;SDS011;67272;48.066;11.038;2024-01-27T05:20:47;4.40;;;2.70;;
39256;SDS011;67272;48.066;11.038;2024-01-27T05:23:13;5.47;;;2.73;;
39256;SDS011;67272;48.066;11.038;2024-01-27T05:25:40;4.30;;;3.37;;
39256;SDS011;67272;48.066;11.038;2024-01-27T05:28:06;5.27;;;3.70;;
39256;SDS011;67272;48.066;11.038;2024-01-27T05:30:35;4.93;;;3.27;;
39256;SDS011;67272;48.066;11.038;2024-01-27T05:33:05;5.43;;;3.50;;
39256;SDS011;67272;48.066;11.038;2024-01-27T05:35:34;3.80;;;3.07;;
39256;SDS011;67272;48.066;11.038;2024-01-27T05:38:09;5.50;;;3.13;;
39256;SDS011;67272;48.066;11.038;2024-01-27T05:40:36;5.63;;;3.33;;
39256;SDS011;67272;48.066;11.038;2024-01-27T05:43:05;7.00;;;3.93;;
39256;SDS011;67272;48.066;11.038;2024-01-27T05:45:32;4.60;;;3.53;;
39256;SDS011;67272;48.066;11.038;2024-01-27T05:47:58;5.30;;;4.13;;
39256;SDS011;67272;48.066;11.038;2024-01-27T05:50:25;4.00;;;3.40;;
39256;SDS011;67272;48.066;11.038;2024-01-27T05:52:52;7.40;;;4.40;;
39256;SDS011;67272;48.066;11.038;2024-01-27T05:55:21;6.80;;;6.10;;
39256;SDS011;67272;48.066;11.038;2024-01-27T05:57:51;7.23;;;5.50;;
39256;SDS011;67272;48.066;11.038;2024-01-27T06:00:22;7.67;;;4.40;;
39256;SDS011;67272;48.066;11.038;2024-01-27T06:02:52;4.77;;;4.00;;
39256;SDS011;67272;48.066;11.038;2024-01-27T06:05:18;6.50;;;3.93;;
39256;SDS011;67272;48.066;11.038;2024-01-27T06:07:44;6.27;;;3.63;;
39256;SDS011;67272;48.066;11.038;2024-01-27T06:10:13;5.10;;;3.80;;
39256;SDS011;67272;48.066;11.038;2024-01-27T06:12:39;4.47;;;3.70;;
39256;SDS011;67272;48.066;11.038;2024-01-27T06:15:08;5.67;;;3.60;;
39256;SDS011;67272;48.066;11.038;2024-01-27T06:17:36;7.57;;;3.70;;
39256;SDS011;67272;48.066;11.038;2024-01-27T06:20:02;5.80;;;3.27;;
39256;SDS011;67272;48.066;11.038;2024-01-27T06:22:29;4.20;;;3.70;;
39256;SDS011;67272;48.066;11.038;2024-01-27T06:24:58;5.53;;;3.50;;
39256;SDS011;67272;48.066;11.038;2024-01-27T06:27:25;6.60;;;3.77;;
39256;SDS011;67272;48.066;11.038;2024-01-27T06:29:51;4.87;;;3.90;;
39256;SDS011;67272;48.066;11.038;2024-01-27T06:32:20;6.40;;;4.20;;
39256;SDS011;67272;48.066;11.038;2024-01-27T06:34:47;7.77;;;4.00;;
39256;SDS011;67272;48.066;11.038;2024-01-27T06:37:13;6.90;;;4.50;;
39256;SDS011;67272;48.066;11.038;2024-01-27T06:39:40;7.97;;;5.80;;
39256;SDS011;67272;48.066;11.038;2024-01-27T06:42:09;7.27;;;4.70;;
39256;SDS011;67272;48.066;11.038;2024-01-27T06:44:35;6.47;;;4.17;;
39256;SDS011;67272;48.066;11.038;2024-01-27T06:47:01;8.20;;;5.10;;
39256;SDS011;67272;48.066;11.038;2024-01-27T06:49:28;8.60;;;4.53;;
39256;SDS011;67272;48.066;11.038;2024-01-27T06:51:57;9.33;;;5.23;;
39256;SDS011;67272;48.066;11.038;2024-01-27T06:54:23;8.30;;;5.00;;
39256;SDS011;67272;48.066;11.038;2024-01-27T06:56:50;8.53;;;4.80;;
39256;SDS011;67272;48.066;11.038;2024-01-27T06:59:16;6.23;;;4.30;;
39256;SDS011;67272;48.066;11.038;2024-01-27T07:01:46;8.87;;;4.97;;
39256;SDS011;67272;48.066;11.038;2024-01-27T07:04:13;9.67;;;4.13;;
39256;SDS011;67272;48.066;11.038;2024-01-27T07:06:40;8.70;;;4.90;;
39256;SDS011;67272;48.066;11.038;2024-01-27T07:09:10;10.63;;;5.30;;
39256;SDS011;67272;48.066;11.038;2024-01-27T07:11:42;8.37;;;5.37;;
39256;SDS011;67272;48.066;11.038;2024-01-27T07:14:14;9.37;;;5.07;;
39256;SDS011;67272;48.066;11.038;2024-01-27T07:16:43;9.43;;;5.30;;
39256;SDS011;67272;48.066;11.038;2024-01-27T07:19:10;7.80;;;4.63;;
39256;SDS011;67272;48.066;11.038;2024-01-27T07:21:36;6.67;;;4.80;;
39256;SDS011;67272;48.066;11.038;2024-01-27T07:24:06;4.90;;;3.67;;
39256;SDS011;67272;48.066;11.038;2024-01-27T07:26:32;5.20;;;3.93;;
39256;SDS011;67272;48.066;11.038;2024-01-27T07:28:58;5.20;;;4.07;;
39256;SDS011;67272;48.066;11.038;2024-01-27T07:31:25;6.93;;;5.00;;
39256;SDS011;67272;48.066;11.038;2024-01-27T07:33:52;10.23;;;6.70;;
39256;SDS011;67272;48.066;11.038;2024-01-27T07:36:18;23.10;;;15.63;;
39256;SDS011;67272;48.066;11.038;2024-01-27T07:38:44;13.63;;;9.87;;
39256;SDS011;67272;48.066;11.038;2024-01-27T07:41:13;10.63;;;8.20;;
39256;SDS011;67272;48.066;11.038;2024-01-27T07:43:45;8.57;;;7.77;;
39256;SDS011;67272;48.066;11.038;2024-01-27T07:46:12;8.53;;;7.00;;
39256;SDS011;67272;48.066;11.038;2024-01-27T07:48:38;7.33;;;6.17;;
39256;SDS011;67272;48.066;11.038;2024-01-27T07:51:04;6.17;;;4.53;;
39256;SDS011;67272;48.066;11.038;2024-01-27T07:53:31;3.80;;;2.60;;
39256;SDS011;67272;48.066;11.038;2024-01-27T07:56:12;2.40;;;2.03;;
39256;SDS011;67272;48.066;11.038;2024-01-27T07:58:40;3.33;;;2.20;;
39256;SDS011;67272;48.066;11.038;2024-01-27T08:01:07;3.13;;;2.47;;
39256;SDS011;67272;48.066;11.038;2024-01-27T08:03:39;4.20;;;3.20;;
39256;SDS011;67272;48.066;11.038;2024-01-27T08:06:06;5.43;;;3.13;;
39256;SDS011;67272;48.066;11.038;2024-01-27T08:08:38;4.27;;;3.00;;
39256;SDS011;67272;48.066;11.038;2024-01-27T08:11:08;4.27;;;3.23;;
39256;SDS011;67272;48.066;11.038;2024-01-27T08:13:40;3.93;;;2.97;;
39256;SDS011;67272;48.066;11.038;2024-01-27T08:16:07;5.23;;;2.67;;
39256;SDS011;67272;48.066;11.038;2024-01-27T08:18:44;5.20;;;2.70;;
39256;SDS011;67272;48.066;11.038;2024-01-27T08:21:10;3.10;;;2.80;;
39256;SDS011;67272;48.066;11.038;2024-01-27T08:23:39;4.07;;;3.00;;
39256;SDS011;67272;48.066;11.038;2024-01-27T08:26:12;4.20;;;2.90;;
39256;SDS011;67272;48.066;11.038;2024-01-27T08:28:38;5.60;;;3.13;;
39256;SDS011;67272;48.066;11.038;2024-01-27T08:31:05;2.90;;;2.70;;
39256;SDS011;67272;48.066;11.038;2024-01-27T08:33:34;4.40;;;2.80;;
39256;SDS011;67272;48.066;11.038;2024-01-27T08:36:07;4.37;;;3.23;;
39256;SDS011;67272;48.066;11.038;2024-01-27T08:38:36;4.27;;;3.10;;
39256;SDS011;67272;48.066;11.038;2024-01-27T08:41:05;4.20;;;3.20;;
39256;SDS011;67272;48.066;11.038;2024-01-27T08:43:32;3.60;;;3.27;;
39256;SDS011;67272;48.066;11.038;2024-01-27T08:45:58;4.80;;;3.53;;
39256;SDS011;67272;48.066;11.038;2024-01-27T08:48:25;3.93;;;3.47;;
39256;SDS011;67272;48.066;11.038;2024-01-27T08:50:51;7.33;;;3.97;;
39256;SDS011;67272;48.066;11.038;2024-01-27T08:53:20;4.50;;;3.60;;
39256;SDS011;67272;48.066;11.038;2024-01-27T08:55:50;6.13;;;3.60;;
39256;SDS011;67272;48.066;11.038;2024-01-27T08:58:16;5.67;;;3.57;;
39256;SDS011;67272;48.066;11.038;2024-01-27T09:00:42;5.57;;;3.30;;
39256;SDS011;67272;48.066;11.038;2024-01-27T09:03:09;4.87;;;3.43;;
39256;SDS011;67272;48.066;11.038;2024-01-27T09:05:40;5.93;;;3.60;;
39256;SDS011;67272;48.066;11.038;2024-01-27T09:08:09;4.83;;;3.70;;
39256;SDS011;67272;48.066;11.038;2024-01-27T09:10:42;4.40;;;3.40;;
39256;SDS011;67272;48.066;11.038;2024-01-27T09:13:08;4.83;;;2.90;;
39256;SDS011;67272;48.066;11.038;2024-01-27T09:15:35;4.43;;;3.00;;
39256;SDS011;67272;48.066;11.038;2024-01-27T09:18:01;4.33;;;3.20;;
39256;SDS011;67272;48.066;11.038;2024-01-27T09:20:27;5.32;;;3.10;;
39256;SDS011;67272;48.066;11.038;2024-01-27T09:22:53;5.07;;;3.30;;
39256;SDS011;67272;48.066;11.038;2024-01-27T09:25:19;4.30;;;3.50;;
39256;SDS011;67272;48.066;11.038;2024-01-27T09:27:45;6.53;;;3.58;;
39256;SDS011;67272;48.066;11.038;2024-01-27T09:30:11;3.63;;;2.70;;
39256;SDS011;67272;48.066;11.038;2024-01-27T09:32:39;3.80;;;2.65;;
39256;SDS011;67272;48.066;11.038;2024-01-27T09:35:05;3.55;;;2.67;;
39256;SDS011;67272;48.066;11.038;2024-01-27T09:37:32;5.15;;;2.67;;
39256;SDS011;67272;48.066;11.038;2024-01-27T09:39:58;4.82;;;2.88;;
39256;SDS011;67272;48.066;11.038;2024-01-27T09:42:26;5.68;;;2.70;;
39256;SDS011;67272;48.066;11.038;2024-01-27T09:44:53;4.53;;;2.50;;
39256;SDS011;67272;48.066;11.038;2024-01-27T09:47:19;5.40;;;2.63;;
39256;SDS011;67272;48.066;11.038;2024-01-27T09:49:46;4.25;;;3.40;;
39256;SDS011;67272;48.066;11.038;2024-01-27T09:52:13;4.13;;;2.50;;
39256;SDS011;67272;48.066;11.038;2024-01-27T09:54:40;5.07;;;2.67;;
39256;SDS011;67272;48.066;11.038;2024-01-27T09:57:07;4.10;;;2.60;;
39256;SDS011;67272;48.066;11.038;2024-01-27T09:59:37;4.53;;;2.60;;
39256;SDS011;67272;48.066;11.038;2024-01-27T10:02:08;3.95;;;2.30;;
39256;SDS011;67272;48.066;11.038;2024-01-27T10:04:40;8.15;;;5.03;;
39256;SDS011;67272;48.066;11.038;2024-01-27T10:07:07;6.15;;;3.40;;
39256;SDS011;67272;48.066;11.038;2024-01-27T10:09:36;3.30;;;2.40;;
39256;SDS011;67272;48.066;11.038;2024-01-27T10:12:05;3.10;;;2.40;;
39256;SDS011;67272;48.066;11.038;2024-01-27T10:14:41;3.95;;;2.30;;
39256;SDS011;67272;48.066;11.038;2024-01-27T10:17:11;4.68;;;2.50;;
39256;SDS011;67272;48.066;11.038;2024-01-27T10:19:41;3.63;;;2.28;;
39256;SDS011;67272;48.066;11.038;2024-01-27T10:22:07;3.15;;;2.10;;
39256;SDS011;67272;48.066;11.038;2024-01-27T10:24:36;4.53;;;2.63;;
39256;SDS011;67272;48.066;11.038;2024-01-27T10:27:06;3.47;;;2.40;;
39256;SDS011;67272;48.066;11.038;2024-01-27T10:29:32;3.72;;;2.40;;
39256;SDS011;67272;48.066;11.038;2024-01-27T10:32:08;2.97;;;2.28;;
39256;SDS011;67272;48.066;11.038;2024-01-27T10:34:35;3.22;;;2.38;;
39256;SDS011;67272;48.066;11.038;2024-01-27T10:37:02;4.45;;;2.58;;
39256;SDS011;67272;48.066;11.038;2024-01-27T10:39:31;6.35;;;2.40;;
39256;SDS011;67272;48.066;11.038;2024-01-27T10:41:57;4.32;;;2.58;;
39256;SDS011;67272;48.066;11.038;2024-01-27T10:44:28;5.25;;;2.65;;
39256;SDS011;67272;48.066;11.038;2024-01-27T10:46:55;4.40;;;2.70;;
39256;SDS011;67272;48.066;11.038;2024-01-27T10:49:22;4.00;;;2.50;;
39256;SDS011;67272;48.066;11.038;2024-01-27T10:54:18;3.92;;;2.70;;
39256;SDS011;67272;48.066;11.038;2024-01-27T10:56:45;5.32;;;2.72;;
39256;SDS011;67272;48.066;11.038;2024-01-27T10:59:12;3.45;;;2.20;;
39256;SDS011;67272;48.066;11.038;2024-01-27T11:01:41;3.47;;;2.40;;
39256;SDS011;67272;48.066;11.038;2024-01-27T11:04:08;4.13;;;2.45;;
39256;SDS011;67272;48.066;11.038;2024-01-27T11:06:38;4.00;;;2.60;;
39256;SDS011;67272;48.066;11.038;2024-01-27T11:09:05;4.75;;;2.72;;
39256;SDS011;67272;48.066;11.038;2024-01-27T11:11:43;3.40;;;2.50;;
39256;SDS011;67272;48.066;11.038;2024-01-27T11:14:10;3.80;;;2.35;;
39256;SDS011;67272;48.066;11.038;2024-01-27T11:16:37;3.85;;;2.55;;
39256;SDS011;67272;48.066;11.038;2024-01-27T11:19:11;2.97;;;2.28;;
39256;SDS011;67272;48.066;11.038;2024-01-27T11:21:38;2.90;;;2.40;;
39256;SDS011;67272;48.066;11.038;2024-01-27T11:24:17;3.45;;;2.42;;
39256;SDS011;67272;48.066;11.038;2024-01-27T11:26:44;4.50;;;2.75;;
39256;SDS011;67272;48.066;11.038;2024-01-27T11:29:10;3.92;;;2.38;;
39256;SDS011;67272;48.066;11.038;2024-01-27T11:31:46;3.72;;;2.95;;
39256;SDS011;67272;48.066;11.038;2024-01-27T11:34:12;4.18;;;2.70;;
39256;SDS011;67272;48.066;11.038;2024-01-27T11:36:42;4.38;;;2.53;;
39256;SDS011;67272;48.066;11.038;2024-01-27T11:39:28;4.38;;;2.47;;
39256;SDS011;67272;48.066;11.038;2024-01-27T11:42:04;5.07;;;2.47;;
39256;SDS011;67272;48.066;11.038;2024-01-27T11:44:37;3.47;;;2.50;;
39256;SDS011;67272;48.066;11.038;2024-01-27T11:47:13;4.10;;;2.75;;
39256;SDS011;67272;48.066;11.038;2024-01-27T11:49:55;4.45;;;2.70;;
39256;SDS011;67272;48.066;11.038;2024-01-27T11:52:27;3.25;;;2.17;;
39256;SDS011;67272;48.066;11.038;2024-01-27T11:55:00;5.78;;;3.58;;
39256;SDS011;67272;48.066;11.038;2024-01-27T11:57:29;3.20;;;2.38;;
39256;SDS011;67272;48.066;11.038;2024-01-27T11:59:56;3.45;;;2.50;;
39256;SDS011;67272;48.066;11.038;2024-01-27T12:02:32;4.03;;;2.58;;
39256;SDS011;67272;48.066;11.038;2024-01-27T12:04:58;3.92;;;2.55;;
39256;SDS011;67272;48.066;11.038;2024-01-27T12:07:25;4.28;;;2.33;;
39256;SDS011;67272;48.066;11.038;2024-01-27T12:09:55;2.72;;;2.30;;
39256;SDS011;67272;48.066;11.038;2024-01-27T12:12:24;3.38;;;2.25;;
39256;SDS011;67272;48.066;11.038;2024-01-27T12:14:50;2.97;;;2.63;;
39256;SDS011;67272;48.066;11.038;2024-01-27T12:17:17;2.63;;;2.03;;
39256;SDS011;67272;48.066;11.038;2024-01-27T12:19:50;2.83;;;2.10;;
39256;SDS011;67272;48.066;11.038;2024-01-27T12:22:25;5.72;;;2.30;;
39256;SDS011;67272;48.066;11.038;2024-01-27T12:24:59;3.38;;;2.25;;
39256;SDS011;67272;48.066;11.038;2024-01-27T12:27:36;4.40;;;3.10;;
39256;SDS011;67272;48.066;11.038;2024-01-27T12:30:03;2.90;;;2.05;;
39256;SDS011;67272;48.066;11.038;2024-01-27T12:32:31;2.90;;;2.10;;
39256;SDS011;67272;48.066;11.038;2024-01-27T12:34:57;4.57;;;2.22;;
39256;SDS011;67272;48.066;11.038;2024-01-27T12:37:28;3.25;;;2.50;;
39256;SDS011;67272;48.066;11.038;2024-01-27T12:40:16;3.15;;;2.35;;
39256;SDS011;67272;48.066;11.038;2024-01-27T12:42:43;3.20;;;2.28;;
39256;SDS011;67272;48.066;11.038;2024-01-27T12:45:09;3.30;;;2.13;;
39256;SDS011;67272;48.066;11.038;2024-01-27T12:47:39;2.83;;;2.22;;
39256;SDS011;67272;48.066;11.038;2024-01-27T12:50:05;3.47;;;2.17;;
39256;SDS011;67272;48.066;11.038;2024-01-27T12:52:32;4.03;;;2.10;;
39256;SDS011;67272;48.066;11.038;2024-01-27T12:55:02;5.80;;;2.00;;
39256;SDS011;67272;48.066;11.038;2024-01-27T12:57:29;3.47;;;2.20;;
39256;SDS011;67272;48.066;11.038;2024-01-27T12:59:55;3.08;;;2.22;;
39256;SDS011;67272;48.066;11.038;2024-01-27T13:02:21;3.53;;;1.90;;
39256;SDS011;67272;48.066;11.038;2024-01-27T13:04:48;4.30;;;2.10;;
39256;SDS011;67272;48.066;11.038;2024-01-27T13:07:17;3.92;;;2.00;;
39256;SDS011;67272;48.066;11.038;2024-01-27T13:09:47;2.20;;;1.90;;
39256;SDS011;67272;48.066;11.038;2024-01-27T13:12:14;2.92;;;2.20;;
39256;SDS011;67272;48.066;11.038;2024-01-27T13:14:40;3.25;;;2.10;;
39256;SDS011;67272;48.066;11.038;2024-01-27T13:17:07;3.08;;;1.95;;
39256;SDS011;67272;48.066;11.038;2024-01-27T13:19:33;4.60;;;2.25;;
39256;SDS011;67272;48.066;11.038;2024-01-27T13:22:00;3.03;;;2.10;;
39256;SDS011;67272;48.066;11.038;2024-01-27T13:24:26;2.30;;;2.08;;
39256;SDS011;67272;48.066;11.038;2024-01-27T13:26:53;3.00;;;1.92;;
39256;SDS011;67272;48.066;11.038;2024-01-27T13:29:22;3.13;;;2.60;;
39256;SDS011;67272;48.066;11.038;2024-01-27T13:31:52;4.55;;;2.85;;
39256;SDS011;67272;48.066;11.038;2024-01-27T13:34:21;2.70;;;2.42;;
39256;SDS011;67272;48.066;11.038;2024-01-27T13:36:47;4.93;;;2.60;;
39256;SDS011;67272;48.066;11.038;2024-01-27T13:39:13;3.33;;;2.20;;
39256;SDS011;67272;48.066;11.038;2024-01-27T13:41:40;3.67;;;2.00;;
39256;SDS011;67272;48.066;11.038;2024-01-27T13:44:09;3.38;;;2.28;;
39256;SDS011;67272;48.066;11.038;2024-01-27T13:46:38;4.47;;;2.30;;
39256;SDS011;67272;48.066;11.038;2024-01-27T13:49:04;4.18;;;2.42;;
39256;SDS011;67272;48.066;11.038;2024-01-27T13:51:31;3.65;;;2.25;;
39256;SDS011;67272;48.066;11.038;2024-01-27T13:54:00;3.17;;;1.98;;
39256;SDS011;67272;48.066;11.038;2024-01-27T13:56:29;2.58;;;2.17;;
39256;SDS011;67272;48.066;11.038;2024-01-27T13:59:02;4.15;;;2.35;;
39256;SDS011;67272;48.066;11.038;2024-01-27T14:01:29;4.20;;;2.38;;
39256;SDS011;67272;48.066;11.038;2024-01-27T14:03:56;2.80;;;2.15;;
39256;SDS011;67272;48.066;11.038;2024-01-27T14:06:28;2.63;;;2.10;;
39256;SDS011;67272;48.066;11.038;2024-01-27T14:08:58;3.45;;;2.10;;
39256;SDS011;67272;48.066;11.038;2024-01-27T14:11:24;5.63;;;5.13;;
39256;SDS011;67272;48.066;11.038;2024-01-27T14:13:50;4.53;;;3.22;;
39256;SDS011;67272;48.066;11.038;2024-01-27T14:16:17;3.88;;;3.47;;
39256;SDS011;67272;48.066;11.038;2024-01-27T14:18:46;4.72;;;2.70;;
39256;SDS011;67272;48.066;11.038;2024-01-27T14:21:15;3.83;;;2.70;;
39256;SDS011;67272;48.066;11.038;2024-01-27T14:23:42;5.63;;;2.90;;
39256;SDS011;67272;48.066;11.038;2024-01-27T14:26:11;2.72;;;2.38;;
39256;SDS011;67272;48.066;11.038;2024-01-27T14:28:44;3.50;;;3.00;;
39256;SDS011;67272;48.066;11.038;2024-01-27T14:31:11;3.85;;;2.75;;
39256;SDS011;67272;48.066;11.038;2024-01-27T14:33:37;3.60;;;2.65;;
39256;SDS011;67272;48.066;11.038;2024-01-27T14:36:03;3.30;;;3.08;;
39256;SDS011;67272;48.066;11.038;2024-01-27T14:38:30;4.38;;;2.90;;
39256;SDS011;67272;48.066;11.038;2024-01-27T14:40:59;4.38;;;2.72;;
39256;SDS011;67272;48.066;11.038;2024-01-27T14:43:25;4.07;;;3.25;;